createdAt,value
2022-10-11T00:02:20.973Z,5.07
2022-10-11T00:09:22.817Z,5.80
2022-10-11T00:16:24.795Z,5.90
2022-10-11T00:23:26.482Z,5.63
2022-10-11T00:30:28.234Z,5.55
2022-10-11T00:37:29.933Z,6.00
2022-10-11T00:44:33.156Z,6.03
2022-10-11T00:51:41.149Z,6.22
2022-10-11T00:58:43.574Z,5.93
2022-10-11T01:05:45.744Z,6.25
2022-10-11T01:12:56.660Z,6.45
2022-10-11T01:20:16.743Z,5.90
2022-10-11T01:27:37.167Z,5.88
2022-10-11T01:35:02.064Z,6.65
2022-10-11T01:42:05.107Z,6.18
2022-10-11T01:49:07.084Z,6.57
2022-10-11T01:56:38.333Z,6.05
2022-10-11T02:03:45.931Z,6.47
2022-10-11T02:11:08.106Z,6.38
2022-10-11T02:18:12.052Z,6.63
2022-10-11T02:25:17.670Z,7.05
2022-10-11T02:32:20.294Z,6.43
2022-10-11T02:39:25.827Z,6.45
2022-10-11T02:46:30.668Z,6.53
2022-10-11T02:53:33.806Z,6.47
2022-10-11T03:00:35.604Z,6.95
2022-10-11T03:07:37.598Z,6.47
2022-10-11T03:14:39.391Z,7.13
2022-10-11T03:21:41.150Z,6.72
2022-10-11T03:28:43.071Z,7.68
2022-10-11T03:35:45.876Z,6.78
2022-10-11T03:42:47.950Z,7.95
2022-10-11T03:49:49.718Z,7.13
2022-10-11T03:56:54.330Z,8.50
2022-10-11T04:03:57.470Z,7.45
2022-10-11T04:10:59.342Z,7.50
2022-10-11T04:18:01.827Z,7.47
2022-10-11T04:25:03.965Z,8.15
2022-10-11T04:32:05.851Z,7.65
2022-10-11T04:39:07.936Z,7.95
2022-10-11T04:46:10.428Z,7.63
2022-10-11T04:53:12.773Z,9.20
2022-10-11T05:00:15.041Z,8.05
2022-10-11T05:07:17.125Z,8.13
2022-10-11T05:14:19.035Z,8.50
2022-10-11T05:21:22.015Z,8.60
2022-10-11T05:28:23.877Z,8.65
2022-10-11T05:35:25.806Z,8.18
2022-10-11T05:42:27.687Z,8.20
2022-10-11T05:49:29.544Z,8.77
2022-10-11T05:56:31.349Z,9.35
2022-10-11T06:03:33.287Z,9.85
2022-10-11T06:10:35.222Z,9.32
2022-10-11T06:17:37.462Z,10.60
2022-10-11T06:24:39.386Z,10.00
2022-10-11T06:31:41.160Z,13.30
2022-10-11T06:38:45.189Z,11.93
2022-10-11T06:45:47.332Z,11.73
2022-10-11T06:52:49.293Z,11.23
2022-10-11T06:59:51.295Z,11.13
2022-10-11T07:06:53.218Z,11.73
2022-10-11T07:13:59.199Z,11.35
2022-10-11T07:21:08.535Z,12.23
2022-10-11T07:28:10.363Z,12.30
2022-10-11T07:35:12.254Z,12.25
2022-10-11T07:42:14.236Z,12.70
2022-10-11T07:49:16.183Z,12.23
2022-10-11T07:56:22.382Z,12.05
2022-10-11T08:03:24.363Z,5.63
2022-10-11T08:10:26.894Z,11.23
2022-10-11T08:17:29.865Z,9.27
2022-10-11T08:24:35.973Z,10.52
2022-10-11T08:31:40.412Z,10.43
2022-10-11T08:38:42.277Z,10.20
2022-10-11T08:45:51.102Z,9.05
2022-10-11T08:53:16.312Z,8.00
2022-10-11T09:00:19.520Z,9.13
2022-10-11T09:07:40.179Z,7.95
2022-10-11T09:15:00.694Z,6.90
2022-10-11T09:22:20.535Z,7.68
2022-10-11T09:29:52.010Z,6.97
2022-10-11T09:37:00.887Z,7.43
2022-10-11T09:44:02.815Z,7.00
2022-10-11T09:51:14.103Z,7.32
2022-10-11T09:58:25.045Z,6.60
2022-10-11T10:05:31.616Z,5.63
2022-10-11T10:12:33.883Z,5.38
2022-10-11T10:20:01.972Z,5.60
2022-10-11T10:27:06.821Z,5.55
2022-10-11T10:34:14.853Z,4.43
2022-10-11T10:41:17.354Z,5.18
2022-10-11T10:48:22.687Z,4.30
2022-10-11T10:55:33.680Z,3.55
2022-10-11T11:02:50.882Z,3.75
2022-10-11T11:09:55.835Z,3.08
2022-10-11T11:17:16.379Z,3.10
2022-10-11T11:24:47.576Z,2.80
2022-10-11T11:31:55.432Z,2.47
2022-10-11T11:39:00.005Z,2.05
2022-10-11T11:46:06.949Z,2.53
2022-10-11T11:53:16.903Z,2.30
2022-10-11T12:00:21.766Z,2.30
2022-10-11T12:07:25.178Z,2.10
2022-10-11T12:14:29.990Z,2.50
2022-10-11T12:21:33.337Z,3.00
2022-10-11T12:28:38.999Z,2.75
2022-10-11T12:35:48.230Z,2.50
2022-10-11T12:43:08.749Z,2.50
2022-10-11T12:50:46.119Z,2.03
2022-10-11T12:57:47.863Z,2.03
2022-10-11T13:04:49.667Z,2.65
2022-10-11T13:11:54.545Z,2.55
2022-10-11T13:18:58.512Z,3.08
2022-10-11T13:26:00.727Z,2.63
2022-10-11T13:33:06.322Z,2.40
2022-10-11T13:40:13.824Z,2.22
2022-10-11T13:47:17.422Z,1.98
2022-10-11T13:54:19.213Z,2.10
2022-10-11T14:01:22.745Z,2.20
2022-10-11T14:08:33.726Z,2.03
2022-10-11T14:15:36.648Z,1.85
2022-10-11T14:22:38.407Z,2.22
2022-10-11T14:29:45.709Z,2.03
2022-10-11T14:36:57.382Z,2.10
2022-10-11T14:43:59.241Z,2.15
2022-10-11T14:51:02.486Z,2.17
2022-10-11T14:58:04.742Z,2.38
2022-10-11T15:05:06.911Z,2.78
2022-10-11T15:12:09.891Z,3.22
2022-10-11T15:19:16.166Z,2.80
2022-10-11T15:26:24.210Z,2.63
2022-10-11T15:33:27.553Z,14.30
2022-10-11T15:40:36.042Z,4.28
2022-10-11T15:47:39.571Z,2.83
2022-10-11T15:54:41.477Z,3.83
2022-10-11T16:01:43.310Z,9.35
2022-10-11T16:08:45.344Z,9.40
2022-10-11T16:15:47.314Z,7.28
2022-10-11T16:22:50.118Z,5.78
2022-10-11T16:29:52.081Z,5.63
2022-10-11T16:36:53.889Z,6.53
2022-10-11T16:43:56.282Z,8.65
2022-10-11T16:51:05.016Z,11.77
2022-10-11T16:58:07.879Z,21.20
2022-10-11T17:05:09.651Z,9.20
2022-10-11T17:12:13.297Z,7.55
2022-10-11T17:19:16.220Z,7.65
2022-10-11T17:26:20.358Z,7.95
2022-10-11T17:33:22.145Z,9.13
2022-10-11T17:40:26.666Z,9.75
2022-10-11T17:47:30.927Z,9.85
2022-10-11T17:54:42.924Z,12.30
2022-10-11T18:01:49.834Z,13.15
2022-10-11T18:09:09.991Z,13.35
2022-10-11T18:16:12.839Z,14.90
2022-10-11T18:23:21.897Z,19.48
2022-10-11T18:30:24.977Z,19.30
2022-10-11T18:37:28.350Z,17.02
2022-10-11T18:44:31.810Z,15.73
2022-10-11T18:51:35.871Z,20.55
2022-10-11T18:58:40.769Z,36.55
2022-10-11T19:05:42.790Z,47.33
2022-10-11T19:12:44.648Z,47.20
2022-10-11T19:19:46.544Z,40.03
2022-10-11T19:26:51.166Z,42.67
2022-10-11T19:33:53.341Z,37.90
2022-10-11T19:40:55.710Z,37.70
2022-10-11T19:47:57.690Z,34.38
2022-10-11T19:54:59.500Z,28.55
2022-10-11T20:02:01.398Z,25.98
2022-10-11T20:09:27.335Z,24.13
2022-10-11T20:16:27.886Z,19.10
2022-10-11T20:23:30.943Z,19.73
2022-10-11T20:30:33.007Z,21.63
2022-10-11T20:37:36.238Z,19.10
2022-10-11T20:44:38.455Z,21.55
2022-10-11T20:51:41.797Z,26.52
2022-10-11T20:58:45.367Z,23.10
2022-10-11T21:05:47.964Z,18.88
2022-10-11T21:12:51.961Z,17.27
2022-10-11T21:19:54.117Z,16.08
2022-10-11T21:27:00.461Z,16.52
2022-10-11T21:34:03.492Z,14.15
2022-10-11T21:41:06.154Z,11.13
2022-10-11T21:48:08.054Z,12.32
2022-10-11T21:55:10.981Z,14.75
2022-10-11T22:02:12.930Z,14.88
2022-10-11T22:09:14.846Z,14.75
2022-10-11T22:16:17.018Z,12.75
2022-10-11T22:23:19.799Z,15.30
2022-10-11T22:30:21.736Z,14.32
2022-10-11T22:37:23.458Z,15.20
2022-10-11T22:44:25.268Z,14.60
2022-10-11T22:51:27.173Z,13.43
2022-10-11T22:58:36.240Z,12.70
2022-10-11T23:05:37.973Z,12.67
2022-10-11T23:12:39.834Z,11.95
2022-10-11T23:19:41.728Z,10.68
2022-10-11T23:26:43.714Z,8.05
2022-10-11T23:33:46.271Z,7.60
2022-10-11T23:40:48.759Z,9.63
2022-10-11T23:47:50.521Z,10.02
2022-10-11T23:54:52.532Z,10.07
